Aérodrome :
LOGIN :

S'inscrire | Disclaimer

   EN    FR    IT 

 










Légende :    VFR   VFR Marginal   IFR   IFR Intensif   IFR Très Intensif
Visi : 
Plafond : 
>= 8 km
>= 3000ft
5 à 8 km
1000 à 3000 ft
1500m à 5 km
500 à 1000 ft
800 à 1500m
200 à 500 ft
< 800m
< 200 ft
Symboles :   Orages  Brouillard  Fortes neiges  Fortes précipitations  Vent > 20 kt
SIGMETs :   Divers  Orages  Givrage  Turbulence  Onde Orograph.  Cendres Volcan.







- Altitude de l'aérodrome : 235 ft
- Code IATA : BZG


EPBY - Bydgoszcz

DERNIER METAR :
  • 292100Z 03007KT 9999 FEW011 BKN014 05/03 Q1018

METARs EXPIRÉS :
  • 292030Z 30005KT 9999 SCT015 SCT018 05/03 Q1018
  • 292000Z 26007KT 9999 FEW016 05/04 Q1017
  • 291930Z 26007KT 9999 BKN019 OVC024 06/05 Q1017
  • 291900Z 25004KT 9999 SCT045 05/04 Q1017
  • 291830Z 24003KT CAVOK 05/04 Q1017

TAF TAF EPBY
Valide du 29 à 18h jusqu'au 30 à 18h UTC


291730Z 2918/3018 29010KT 9999 SCT035
TEMPO 2918/2921 SHRA BKN030CB
BECMG 2919/2923 35005KT
BECMG 3006/3009 09010KT
Pas de NOTAMs connus pour ce terrain.



MET'MAP, la Météo Aéronautique d'un coup d'oeil ! - Copyright ORBIFLY Décembre 2007 - Disclaimer

ORBIFLY MET'MAP TEAM :

Programmation & Développement : Alexandra Zaïnal
Conception & Développement : Baudouin d'Aumeries
Co-Programmation & Développement : Marc-Olivier Méhu
Soutien technique & logistique : Manuel Goepfert

Contact : metmap@orbifly.com




SOURCES & CREDITS :

   NOAA